Search for the current weather situation

Metar

Metar
TNCB 140355Z AUTO 08009KT 040V100 9999 FEW017/// 28/25 Q1011
Decoded Metar

TAF

TAF
TNCB 140355Z AUTO 08009KT 040V100 9999 FEW017/// 28/25 Q1011
Decoded TAF
Top